createdAt,value
2019-05-02T00:00:33.063Z,91.51
2019-05-02T00:01:33.215Z,91.03
2019-05-02T00:02:33.358Z,91.51
2019-05-02T00:03:35.871Z,89.32
2019-05-02T00:04:33.656Z,89.32
2019-05-02T00:05:33.805Z,88.75
2019-05-02T00:06:38.211Z,88.18
2019-05-02T00:07:34.099Z,88.18
2019-05-02T00:08:34.425Z,89.14
2019-05-02T00:09:34.397Z,90.08
2019-05-02T00:10:34.546Z,89.51
2019-05-02T00:11:34.692Z,89.23
2019-05-02T00:12:34.840Z,88.09
2019-05-02T00:13:34.987Z,87.71
2019-05-02T00:14:35.135Z,86.18
2019-05-02T00:15:38.263Z,86.28
2019-05-02T00:16:35.436Z,85.61
2019-05-02T00:17:35.581Z,86.38
2019-05-02T00:18:37.084Z,86.57
2019-05-02T00:19:35.882Z,86.76
2019-05-02T00:20:36.025Z,88.18
2019-05-02T00:21:38.205Z,89.42
2019-05-02T00:22:36.321Z,90.08
2019-05-02T00:23:36.470Z,92.08
2019-05-02T00:24:39.390Z,93.89
2019-05-02T00:25:36.793Z,94.93
2019-05-02T00:26:36.943Z,95.89
2019-05-02T00:27:37.671Z,95.89
2019-05-02T00:28:37.239Z,95.79
2019-05-02T00:29:37.387Z,93.27
2019-05-02T00:30:37.535Z,91.37
2019-05-02T00:31:37.699Z,91.42
2019-05-02T00:32:37.830Z,91.13
2019-05-02T00:33:37.979Z,90.66
2019-05-02T00:34:38.128Z,89.47
2019-05-02T00:35:40.881Z,88.75
2019-05-02T00:36:38.429Z,90.18
2019-05-02T00:37:38.570Z,90.18
2019-05-02T00:38:39.872Z,90.84
2019-05-02T00:39:38.865Z,90.08
2019-05-02T00:40:39.013Z,90.28
2019-05-02T00:41:40.504Z,90.14
2019-05-02T00:42:39.311Z,90.08
2019-05-02T00:43:39.459Z,89.37
2019-05-02T00:44:42.094Z,88.52
2019-05-02T00:45:39.764Z,89.66
2019-05-02T00:46:39.906Z,89.37
2019-05-02T00:47:42.172Z,89.28
2019-05-02T00:48:40.200Z,90.33
2019-05-02T00:49:40.349Z,90.14
2019-05-02T00:50:44.955Z,90.14
2019-05-02T00:51:40.647Z,87.19
2019-05-02T00:52:40.796Z,86.05
2019-05-02T00:53:44.477Z,86.99
2019-05-02T00:54:41.089Z,86.52
2019-05-02T00:55:41.239Z,86.71
2019-05-02T00:56:44.198Z,85.47
2019-05-02T00:57:41.535Z,85.28
2019-05-02T00:58:41.682Z,84.52
2019-05-02T00:59:42.453Z,84.81
2019-05-02T01:00:41.979Z,86.43
2019-05-02T01:01:42.130Z,86.80
2019-05-02T01:02:42.275Z,87.76
2019-05-02T01:03:42.421Z,88.33
2019-05-02T01:04:42.571Z,88.90
2019-05-02T01:05:42.718Z,88.90
2019-05-02T01:06:44.640Z,87.57
2019-05-02T01:07:43.017Z,86.05
2019-05-02T01:08:43.165Z,85.57
2019-05-02T01:09:46.871Z,83.67
2019-05-02T01:10:43.460Z,83.10
2019-05-02T01:11:43.607Z,82.15
2019-05-02T01:12:44.363Z,81.86
2019-05-02T01:13:43.903Z,81.67
2019-05-02T01:14:44.051Z,80.53
2019-05-02T01:15:44.363Z,80.15
2019-05-02T01:16:44.346Z,80.44
2019-05-02T01:17:44.495Z,79.49
2019-05-02T01:18:44.644Z,78.25
2019-05-02T01:19:47.214Z,76.92
2019-05-02T01:20:44.938Z,76.82
2019-05-02T01:21:45.086Z,77.39
2019-05-02T01:22:47.212Z,78.82
2019-05-02T01:23:45.384Z,78.82
2019-05-02T01:24:45.532Z,80.15
2019-05-02T01:25:47.389Z,80.53
2019-05-02T01:26:45.825Z,82.05
2019-05-02T01:27:45.971Z,83.48
2019-05-02T01:28:49.275Z,84.52
2019-05-02T01:29:46.268Z,86.52
2019-05-02T01:30:46.413Z,88.04
2019-05-02T01:31:49.927Z,87.19
2019-05-02T01:32:46.709Z,86.71
2019-05-02T01:33:46.856Z,86.57
2019-05-02T01:34:48.993Z,86.76
2019-05-02T01:35:47.150Z,85.53
2019-05-02T01:36:47.297Z,84.58
2019-05-02T01:37:51.033Z,85.24
2019-05-02T01:38:47.597Z,85.62
2019-05-02T01:39:47.741Z,86.47
2019-05-02T01:40:48.070Z,87.05
2019-05-02T01:41:48.033Z,87.43
2019-05-02T01:42:49.021Z,86.10
2019-05-02T01:43:48.333Z,85.43
2019-05-02T01:44:48.480Z,85.91
2019-05-02T01:45:48.628Z,84.67
2019-05-02T01:46:48.776Z,84.67
2019-05-02T01:47:48.925Z,84.67
2019-05-02T01:48:49.071Z,84.39
2019-05-02T01:49:52.031Z,85.05
2019-05-02T01:50:49.368Z,85.53
2019-05-02T01:51:49.516Z,85.62
2019-05-02T01:52:53.614Z,85.43
2019-05-02T01:53:49.812Z,83.82
2019-05-02T01:54:49.961Z,83.72
2019-05-02T01:55:51.867Z,84.39
2019-05-02T01:56:50.258Z,86.57
2019-05-02T01:57:50.406Z,87.24
2019-05-02T01:58:53.079Z,87.14
2019-05-02T01:59:50.703Z,87.90
2019-05-02T02:00:50.850Z,87.05
2019-05-02T02:01:53.086Z,87.24
2019-05-02T02:02:51.145Z,87.52
2019-05-02T02:03:51.289Z,87.52
2019-05-02T02:04:52.202Z,86.95
2019-05-02T02:05:51.588Z,85.20
2019-05-02T02:06:51.736Z,82.54
2019-05-02T02:07:55.573Z,81.02
2019-05-02T02:08:52.034Z,81.59
2019-05-02T02:09:52.180Z,81.35
2019-05-02T02:10:56.636Z,82.20
2019-05-02T02:11:52.475Z,82.73
2019-05-02T02:13:03.656Z,83.49
2019-05-02T02:13:52.768Z,83.01
2019-05-02T02:14:53.606Z,82.92
2019-05-02T02:15:53.063Z,81.68
2019-05-02T02:16:53.211Z,81.49
2019-05-02T02:17:53.383Z,82.26
2019-05-02T02:18:53.505Z,81.40
2019-05-02T02:19:53.652Z,81.78
2019-05-02T02:20:53.800Z,81.49
2019-05-02T02:21:57.430Z,82.16
2019-05-02T02:22:54.095Z,81.02
2019-05-02T02:23:54.242Z,80.35
2019-05-02T02:24:56.035Z,80.07
2019-05-02T02:25:54.537Z,78.55
2019-05-02T02:26:54.684Z,78.45
2019-05-02T02:27:59.208Z,78.17
2019-05-02T02:28:54.980Z,78.36
2019-05-02T02:29:55.126Z,78.08
2019-05-02T02:30:57.943Z,79.12
2019-05-02T02:31:55.423Z,80.55
2019-05-02T02:33:00.684Z,81.49
2019-05-02T02:33:55.720Z,82.96
2019-05-02T02:34:55.868Z,83.39
2019-05-02T02:35:56.013Z,83.78
2019-05-02T02:36:56.161Z,85.58
2019-05-02T02:37:56.307Z,85.58
2019-05-02T02:38:56.459Z,85.49
2019-05-02T02:39:56.604Z,86.05
2019-05-02T02:40:56.750Z,85.68
2019-05-02T02:41:56.899Z,85.20
2019-05-02T02:42:57.047Z,84.06
2019-05-02T02:44:00.567Z,83.68
2019-05-02T02:44:57.353Z,82.82
2019-05-02T02:45:59.516Z,82.35
2019-05-02T02:46:57.635Z,82.92
2019-05-02T02:47:59.855Z,83.20
2019-05-02T02:48:58.000Z,83.49
2019-05-02T02:50:02.276Z,83.01
2019-05-02T02:50:58.227Z,82.16
2019-05-02T02:52:04.253Z,81.87
2019-05-02T02:52:58.524Z,81.40
2019-05-02T02:54:03.745Z,80.35
2019-05-02T02:54:58.815Z,80.55
2019-05-02T02:56:01.767Z,79.97
2019-05-02T02:56:59.109Z,80.64
2019-05-02T02:58:04.817Z,80.16
2019-05-02T02:58:59.403Z,79.03
2019-05-02T03:01:31.594Z,80.35
2019-05-02T03:02:31.738Z,81.30
2019-05-02T03:03:35.112Z,81.30
2019-05-02T03:04:32.028Z,81.12
2019-05-02T03:05:32.177Z,81.68
2019-05-02T03:06:32.321Z,81.12
2019-05-02T03:07:32.467Z,79.79
2019-05-02T03:08:32.602Z,78.74
2019-05-02T03:09:32.785Z,78.36
2019-05-02T03:10:32.936Z,77.98
2019-05-02T03:11:33.077Z,77.51
2019-05-02T03:12:36.272Z,76.84
2019-05-02T03:13:50.432Z,76.27
2019-05-02T03:14:33.512Z,76.27
2019-05-02T03:15:33.658Z,76.27
2019-05-02T03:16:33.805Z,76.08
2019-05-02T03:17:33.951Z,76.18
2019-05-02T03:18:40.542Z,76.18
2019-05-02T03:19:34.241Z,74.75
2019-05-02T03:20:39.986Z,73.80
2019-05-02T03:21:34.536Z,73.04
2019-05-02T03:22:41.357Z,72.19
2019-05-02T03:23:34.830Z,71.04
2019-05-02T03:24:36.521Z,68.77
2019-05-02T03:25:50.037Z,67.53
2019-05-02T03:26:35.270Z,67.44
2019-05-02T03:27:37.139Z,67.44
2019-05-02T03:28:35.564Z,68.01
2019-05-02T03:29:43.961Z,68.96
2019-05-02T03:30:37.651Z,69.81
2019-05-02T03:31:36.005Z,70.95
2019-05-02T03:32:36.593Z,70.76
2019-05-02T03:33:52.166Z,71.23
2019-05-02T03:34:47.547Z,71.81
2019-05-02T03:35:42.961Z,72.00
2019-05-02T03:36:37.305Z,71.62
2019-05-02T03:37:36.888Z,70.95
2019-05-02T03:38:37.040Z,70.06
2019-05-02T03:39:37.180Z,69.40
2019-05-02T03:40:39.266Z,67.97
2019-05-02T03:41:37.475Z,67.50
2019-05-02T03:42:44.817Z,67.06
2019-05-02T03:43:37.770Z,67.06
2019-05-02T03:44:37.915Z,67.53
2019-05-02T03:45:40.039Z,68.39
2019-05-02T03:46:38.224Z,69.05
2019-05-02T03:47:43.659Z,68.67
2019-05-02T03:48:38.519Z,69.43
2019-05-02T03:49:40.845Z,69.91
2019-05-02T03:50:38.811Z,70.38
2019-05-02T03:51:38.965Z,71.43
2019-05-02T03:52:43.468Z,70.76
2019-05-02T03:53:39.251Z,70.76
2019-05-02T03:54:48.441Z,70.95
2019-05-02T03:55:39.544Z,70.38
2019-05-02T03:56:44.627Z,69.34
2019-05-02T03:57:42.201Z,69.24
2019-05-02T03:58:40.000Z,68.86
2019-05-02T03:59:41.823Z,68.58
2019-05-02T04:00:40.278Z,67.82
2019-05-02T04:01:41.268Z,67.91
2019-05-02T04:02:40.572Z,67.53
2019-05-02T04:03:43.481Z,66.77
2019-05-02T04:04:40.864Z,65.31
2019-05-02T04:05:42.222Z,64.37
2019-05-02T04:06:41.160Z,63.26
2019-05-02T04:07:42.272Z,63.04
2019-05-02T04:08:41.448Z,62.37
2019-05-02T04:09:42.561Z,61.93
2019-05-02T04:10:41.751Z,61.07
2019-05-02T04:11:41.890Z,60.98
2019-05-02T04:12:42.040Z,61.17
2019-05-02T04:13:42.189Z,60.31
2019-05-02T04:14:42.334Z,60.98
2019-05-02T04:15:42.479Z,61.45
2019-05-02T04:16:48.486Z,61.45
2019-05-02T04:17:42.776Z,61.45
2019-05-02T04:18:54.502Z,61.65
2019-05-02T04:19:43.066Z,62.31
2019-05-02T04:20:43.494Z,61.74
2019-05-02T04:21:43.361Z,61.36
2019-05-02T04:22:49.071Z,61.83
2019-05-02T04:23:43.654Z,61.93
2019-05-02T04:24:48.010Z,60.88
2019-05-02T04:25:43.946Z,60.03
2019-05-02T04:26:53.649Z,60.22
2019-05-02T04:27:44.243Z,60.13
2019-05-02T04:28:49.273Z,60.31
2019-05-02T04:29:44.537Z,59.93
2019-05-02T04:30:45.180Z,60.60
2019-05-02T04:31:44.826Z,61.74
2019-05-02T04:32:49.866Z,62.40
2019-05-02T04:33:45.118Z,63.54
2019-05-02T04:34:49.153Z,63.73
2019-05-02T04:35:45.411Z,64.05
2019-05-02T04:36:46.791Z,64.34
2019-05-02T04:37:45.699Z,65.16
2019-05-02T04:38:48.785Z,66.11
2019-05-02T04:39:48.889Z,65.82
2019-05-02T04:40:48.885Z,65.16
2019-05-02T04:41:48.616Z,64.97
2019-05-02T04:42:51.272Z,63.64
2019-05-02T04:43:54.596Z,62.69
2019-05-02T04:45:08.796Z,62.21
2019-05-02T04:45:55.836Z,62.69
2019-05-02T04:46:48.881Z,62.12
2019-05-02T04:47:54.740Z,61.65
2019-05-02T04:48:49.731Z,61.45
2019-05-02T04:49:51.534Z,61.07
2019-05-02T04:50:48.351Z,61.83
2019-05-02T04:51:59.881Z,62.40
2019-05-02T04:52:53.641Z,63.26
2019-05-02T04:53:49.792Z,62.78
2019-05-02T04:54:48.894Z,62.12
2019-05-02T04:55:52.066Z,62.40
2019-05-02T04:56:53.441Z,62.69
2019-05-02T04:57:51.040Z,62.59
2019-05-02T04:58:49.655Z,62.78
2019-05-02T04:59:50.642Z,64.40
2019-05-02T05:00:53.674Z,64.59
2019-05-02T05:01:56.673Z,65.09
2019-05-02T05:02:52.989Z,65.76
2019-05-02T05:03:58.234Z,66.42
2019-05-02T05:04:49.671Z,67.38
2019-05-02T05:05:49.797Z,69.94
2019-05-02T05:06:58.154Z,69.75
2019-05-02T05:07:50.090Z,68.04
2019-05-02T05:08:50.237Z,67.38
2019-05-02T05:09:58.096Z,67.38
2019-05-02T05:10:50.532Z,69.85
2019-05-02T05:11:53.796Z,71.46
2019-05-02T05:12:50.824Z,71.37
2019-05-02T05:13:52.561Z,71.18
2019-05-02T05:14:51.121Z,72.13
2019-05-02T05:15:51.907Z,71.08
2019-05-02T05:16:55.524Z,71.14
2019-05-02T05:17:51.561Z,70.76
2019-05-02T05:18:53.196Z,69.15
2019-05-02T05:19:51.854Z,69.09
2019-05-02T05:20:53.083Z,68.90
2019-05-02T05:21:56.709Z,68.42
2019-05-02T05:22:52.295Z,68.42
2019-05-02T05:23:59.498Z,68.80
2019-05-02T05:24:52.589Z,68.42
2019-05-02T05:25:55.845Z,68.52
2019-05-02T05:26:52.883Z,68.42
2019-05-02T05:27:57.553Z,68.01
2019-05-02T05:28:53.177Z,67.15
2019-05-02T05:29:58.379Z,65.35
2019-05-02T05:30:53.473Z,64.11
2019-05-02T05:31:55.026Z,63.26
2019-05-02T05:32:53.763Z,62.69
2019-05-02T05:33:53.911Z,62.50
2019-05-02T05:34:54.062Z,62.21
2019-05-02T05:35:54.207Z,63.01
2019-05-02T05:36:54.355Z,64.14
2019-05-02T05:37:54.501Z,64.34
2019-05-02T05:38:54.651Z,62.62
2019-05-02T05:39:54.796Z,60.91
2019-05-02T05:40:54.945Z,62.81
2019-05-02T05:41:55.091Z,62.69
2019-05-02T05:42:57.238Z,63.35
2019-05-02T05:43:57.413Z,64.11
2019-05-02T05:44:55.531Z,64.11
2019-05-02T05:46:06.084Z,64.30
2019-05-02T05:46:57.989Z,62.88
2019-05-02T05:47:57.592Z,61.45
2019-05-02T05:48:57.808Z,60.35
2019-05-02T05:49:57.579Z,59.49
2019-05-02T05:50:57.988Z,59.30
2019-05-02T05:52:02.051Z,59.49
2019-05-02T05:52:59.347Z,61.01
2019-05-02T05:54:02.807Z,62.91
2019-05-02T05:54:57.939Z,64.27
2019-05-02T05:56:01.007Z,66.17
2019-05-02T05:56:57.395Z,66.17
2019-05-02T05:58:00.995Z,66.65
2019-05-02T05:58:59.215Z,67.22
2019-05-02T05:59:58.402Z,68.55
2019-05-02T06:00:58.393Z,69.02
2019-05-02T06:01:58.135Z,68.55
2019-05-02T06:03:10.336Z,70.83
2019-05-02T06:03:58.331Z,72.67
2019-05-02T06:05:02.543Z,74.96
2019-05-02T06:05:58.628Z,76.06
2019-05-02T06:07:02.151Z,77.15
2019-05-02T06:07:58.921Z,76.39
2019-05-02T06:08:59.066Z,77.62
2019-05-02T06:10:02.383Z,79.43
2019-05-02T06:10:59.360Z,88.18
2019-05-02T06:11:59.511Z,90.56
2019-05-02T06:12:59.658Z,89.28
2019-05-02T06:13:59.804Z,85.76
2019-05-02T06:15:01.671Z,81.67
2019-05-02T06:16:02.850Z,80.86
2019-05-02T06:17:00.249Z,83.33
2019-05-02T06:18:04.696Z,88.94
2019-05-02T06:19:00.547Z,87.61
2019-05-02T06:20:00.697Z,87.04
2019-05-02T06:21:06.837Z,90.84
2019-05-02T06:22:00.988Z,91.51
2019-05-02T06:23:01.323Z,92.27
2019-05-02T06:24:01.285Z,91.80
2019-05-02T06:25:01.434Z,89.61
2019-05-02T06:26:07.584Z,87.80
2019-05-02T06:27:01.729Z,89.51
2019-05-02T06:28:05.418Z,89.89
2019-05-02T06:29:02.027Z,91.70
2019-05-02T06:30:02.174Z,92.08
2019-05-02T06:31:07.263Z,93.98
2019-05-02T06:32:02.472Z,94.70
2019-05-02T06:33:02.625Z,96.03
2019-05-02T06:34:07.123Z,96.79
2019-05-02T06:35:02.919Z,96.89
2019-05-02T06:36:03.068Z,98.79
2019-05-02T06:37:03.241Z,99.99
2019-05-02T06:38:03.358Z,99.99
2019-05-02T06:39:03.511Z,99.99
2019-05-02T06:40:08.107Z,99.99
2019-05-02T06:41:03.805Z,98.84
2019-05-02T06:42:03.953Z,95.70
2019-05-02T06:43:09.232Z,96.84
2019-05-02T06:44:04.251Z,99.99
2019-05-02T06:45:04.401Z,99.99
2019-05-02T06:46:15.444Z,99.99
2019-05-02T06:47:05.706Z,99.99
2019-05-02T06:48:04.846Z,99.99
2019-05-02T06:49:04.992Z,99.99
2019-05-02T06:50:05.146Z,99.99
2019-05-02T06:51:05.290Z,99.99
2019-05-02T06:52:05.439Z,99.99
2019-05-02T06:53:09.747Z,99.99
2019-05-02T06:54:05.737Z,99.84
2019-05-02T06:55:05.887Z,99.99
2019-05-02T06:56:08.001Z,99.99
2019-05-02T06:57:06.181Z,94.70
2019-05-02T06:58:08.137Z,97.17
2019-05-02T06:59:06.479Z,94.42
2019-05-02T07:00:06.860Z,97.74
2019-05-02T07:01:06.776Z,96.12
2019-05-02T07:02:06.923Z,95.08
2019-05-02T07:03:10.129Z,96.98
2019-05-02T07:04:07.221Z,96.03
2019-05-02T07:05:07.371Z,94.70
2019-05-02T07:06:07.869Z,93.70
2019-05-02T07:07:07.669Z,94.93
2019-05-02T07:08:11.706Z,97.41
2019-05-02T07:09:08.034Z,98.65
2019-05-02T07:10:08.118Z,99.99
2019-05-02T07:11:08.264Z,99.99
2019-05-02T07:12:09.891Z,99.99
2019-05-02T07:13:10.665Z,99.99
2019-05-02T07:14:13.647Z,99.99
2019-05-02T07:15:08.952Z,99.99
2019-05-02T07:16:10.514Z,99.99
2019-05-02T07:17:09.158Z,99.99
2019-05-02T07:18:10.581Z,99.99
2019-05-02T07:19:09.457Z,99.98
2019-05-02T07:20:09.606Z,99.99
2019-05-02T07:21:12.198Z,99.99
2019-05-02T07:22:09.904Z,99.99
2019-05-02T07:23:10.612Z,99.99
2019-05-02T07:24:10.203Z,99.89
2019-05-02T07:25:10.352Z,99.99
2019-05-02T07:26:10.516Z,99.99
2019-05-02T07:27:10.650Z,99.08
2019-05-02T07:28:10.900Z,99.99
2019-05-02T07:29:10.949Z,99.99
2019-05-02T07:30:11.100Z,99.99
2019-05-02T07:31:12.047Z,99.99
2019-05-02T07:32:11.396Z,99.99
2019-05-02T07:33:11.548Z,99.99
2019-05-02T07:34:12.974Z,99.99
2019-05-02T07:35:11.844Z,99.99
2019-05-02T07:36:11.997Z,99.99
2019-05-02T07:37:12.655Z,99.99
2019-05-02T07:38:12.296Z,99.99
2019-05-02T07:39:12.443Z,99.99
2019-05-02T07:40:16.986Z,99.99
2019-05-02T07:41:12.744Z,99.99
2019-05-02T07:42:12.889Z,99.99
2019-05-02T07:43:19.238Z,99.99
2019-05-02T07:44:13.195Z,99.99
2019-05-02T07:45:13.343Z,99.99
2019-05-02T07:46:16.216Z,99.99
2019-05-02T07:47:13.642Z,99.99
2019-05-02T07:48:17.749Z,99.99
2019-05-02T07:49:13.941Z,99.99
2019-05-02T07:50:14.091Z,99.99
2019-05-02T07:51:17.247Z,99.99
2019-05-02T07:52:14.394Z,99.99
2019-05-02T07:53:14.551Z,99.99
2019-05-02T07:54:14.693Z,99.99
2019-05-02T07:55:14.841Z,99.99
2019-05-02T07:56:17.717Z,99.99
2019-05-02T07:57:15.146Z,99.99
2019-05-02T07:58:15.295Z,99.99
2019-05-02T07:59:18.701Z,99.99
2019-05-02T08:00:15.591Z,99.99
2019-05-02T08:01:15.745Z,99.99
2019-05-02T08:02:20.365Z,99.99
2019-05-02T08:03:16.053Z,99.99
2019-05-02T08:04:16.197Z,99.99
2019-05-02T08:05:21.892Z,99.99
2019-05-02T08:06:16.499Z,99.99
2019-05-02T08:07:21.100Z,99.99
2019-05-02T08:08:16.799Z,99.99
2019-05-02T08:09:16.961Z,99.99
2019-05-02T08:10:22.214Z,99.99
2019-05-02T08:11:17.249Z,99.99
2019-05-02T08:12:17.401Z,99.99
2019-05-02T08:13:19.301Z,99.99
2019-05-02T08:14:17.702Z,99.99
2019-05-02T08:15:17.850Z,99.99
2019-05-02T08:16:22.401Z,99.99
2019-05-02T08:17:19.295Z,99.99
2019-05-02T08:18:18.304Z,99.99
2019-05-02T08:19:18.454Z,99.99
2019-05-02T08:20:19.573Z,99.99
2019-05-02T08:21:18.753Z,99.99
2019-05-02T08:22:18.903Z,99.99
2019-05-02T08:23:20.458Z,99.99
2019-05-02T08:24:19.208Z,99.99
2019-05-02T08:25:19.357Z,99.99
2019-05-02T08:26:21.807Z,99.99
2019-05-02T08:27:22.763Z,99.99
2019-05-02T08:28:19.808Z,99.99
2019-05-02T08:29:23.428Z,99.99
2019-05-02T08:30:20.114Z,99.99
2019-05-02T08:31:20.976Z,99.99
2019-05-02T08:32:20.410Z,99.99
2019-05-02T08:33:20.559Z,99.99
2019-05-02T08:34:20.750Z,99.99
2019-05-02T08:35:20.861Z,99.99
2019-05-02T08:36:21.014Z,99.99
2019-05-02T08:37:21.160Z,99.99
2019-05-02T08:38:21.313Z,99.99
2019-05-02T08:39:26.010Z,99.99
2019-05-02T08:40:21.615Z,99.29
2019-05-02T08:41:21.769Z,98.61
2019-05-02T08:42:21.917Z,99.86
2019-05-02T08:43:22.069Z,99.81
2019-05-02T08:44:22.220Z,98.71
2019-05-02T08:45:22.377Z,98.71
2019-05-02T08:46:22.528Z,99.15
2019-05-02T08:47:23.783Z,96.70
2019-05-02T08:48:22.898Z,95.84
2019-05-02T08:49:22.984Z,95.56
2019-05-02T08:50:27.079Z,93.74
2019-05-02T08:51:23.282Z,93.26
2019-05-02T08:52:23.437Z,94.50
2019-05-02T08:53:23.585Z,97.08
2019-05-02T08:54:28.018Z,95.75
2019-05-02T08:55:23.888Z,95.75
2019-05-02T08:56:24.038Z,93.16
2019-05-02T08:57:24.270Z,94.21
2019-05-02T08:58:24.340Z,92.97
2019-05-02T08:59:26.093Z,90.58
2019-05-02T09:00:24.652Z,90.44
2019-05-02T09:01:34.604Z,89.62
2019-05-02T09:02:25.866Z,89.09
2019-05-02T09:03:25.098Z,88.48
2019-05-02T09:04:29.181Z,90.44
2019-05-02T09:05:25.392Z,88.57
2019-05-02T09:06:25.545Z,90.30
2019-05-02T09:07:25.733Z,91.58
2019-05-02T09:08:25.846Z,88.43
2019-05-02T09:09:28.044Z,88.33
2019-05-02T09:10:26.152Z,89.43
2019-05-02T09:11:26.303Z,87.90
2019-05-02T09:12:26.454Z,83.97
2019-05-02T09:13:29.380Z,80.90
2019-05-02T09:14:26.759Z,80.04
2019-05-02T09:15:26.907Z,81.48
2019-05-02T09:16:29.061Z,80.81
2019-05-02T09:17:36.117Z,83.68
2019-05-02T09:18:35.132Z,81.10
2019-05-02T09:19:27.516Z,80.81
2019-05-02T09:20:27.667Z,82.15
2019-05-02T09:21:34.265Z,82.15
2019-05-02T09:22:27.970Z,84.26
2019-05-02T09:23:35.373Z,82.63
2019-05-02T09:24:28.273Z,81.29
2019-05-02T09:25:28.423Z,82.15
2019-05-02T09:26:36.051Z,82.15
2019-05-02T09:27:28.728Z,81.86
2019-05-02T09:28:28.882Z,80.90
2019-05-02T09:29:29.044Z,81.13
2019-05-02T09:30:29.186Z,79.22
2019-05-02T09:31:29.338Z,78.64
2019-05-02T09:32:29.491Z,78.36
2019-05-02T09:33:29.644Z,78.74
2019-05-02T09:34:31.738Z,77.97
2019-05-02T09:35:29.947Z,78.20
2019-05-02T09:36:32.177Z,76.06
2019-05-02T09:37:32.010Z,76.92
2019-05-02T09:38:30.404Z,77.44
2019-05-02T09:39:32.708Z,76.73
2019-05-02T09:40:31.922Z,77.50
2019-05-02T09:41:32.431Z,78.07
2019-05-02T09:42:32.487Z,77.44
2019-05-02T09:43:37.503Z,76.29
2019-05-02T09:44:33.133Z,76.29
2019-05-02T09:45:33.403Z,77.09
2019-05-02T09:46:32.481Z,79.59
2019-05-02T09:47:34.469Z,74.73
2019-05-02T09:48:32.020Z,72.97
2019-05-02T09:49:32.492Z,72.14
2019-05-02T09:50:34.370Z,72.56
2019-05-02T09:51:32.580Z,70.74
2019-05-02T09:52:39.233Z,73.85
2019-05-02T09:53:32.695Z,69.66
2019-05-02T09:54:37.123Z,70.20
2019-05-02T09:55:33.003Z,69.72
2019-05-02T09:56:33.150Z,66.26
2019-05-02T09:57:33.303Z,65.11
2019-05-02T09:58:33.457Z,67.41
2019-05-02T09:59:33.685Z,66.77
2019-05-02T10:00:36.198Z,63.67
2019-05-02T10:01:33.922Z,62.81
2019-05-02T10:02:34.073Z,61.72
2019-05-02T10:03:34.233Z,62.42
2019-05-02T10:04:34.390Z,61.43
2019-05-02T10:05:34.548Z,62.52
2019-05-02T10:06:34.696Z,61.65
2019-05-02T10:07:34.850Z,61.52
2019-05-02T10:08:38.206Z,61.81
2019-05-02T10:09:35.160Z,63.54
2019-05-02T10:10:37.055Z,63.92
2019-05-02T10:11:35.469Z,63.45
2019-05-02T10:12:35.623Z,65.46
2019-05-02T10:13:35.785Z,65.56
2019-05-02T10:14:35.933Z,64.59
2019-05-02T10:15:36.086Z,67.47
2019-05-02T10:16:36.243Z,65.27
2019-05-02T10:17:37.543Z,64.12
2019-05-02T10:18:36.563Z,64.79
2019-05-02T10:19:41.181Z,65.27
2019-05-02T10:20:36.863Z,62.10
2019-05-02T10:21:37.020Z,62.96
2019-05-02T10:22:39.216Z,65.36
2019-05-02T10:23:37.326Z,65.69
2019-05-02T10:24:37.488Z,64.43
2019-05-02T10:25:38.931Z,61.49
2019-05-02T10:26:37.796Z,61.01
2019-05-02T10:27:38.480Z,60.78
2019-05-02T10:28:41.799Z,60.69
2019-05-02T10:29:38.264Z,60.38
2019-05-02T10:30:38.475Z,62.52
2019-05-02T10:31:38.632Z,63.86
2019-05-02T10:32:38.737Z,66.00
2019-05-02T10:33:38.883Z,65.23
2019-05-02T10:34:39.038Z,62.90
2019-05-02T10:35:40.832Z,62.71
2019-05-02T10:36:42.493Z,62.68
2019-05-02T10:37:39.673Z,64.31
2019-05-02T10:38:39.663Z,66.03
2019-05-02T10:39:39.819Z,66.26
2019-05-02T10:40:39.976Z,64.92
2019-05-02T10:41:41.732Z,62.87
2019-05-02T10:42:41.944Z,62.19
2019-05-02T10:43:42.328Z,60.28
2019-05-02T10:44:42.599Z,58.36
2019-05-02T10:45:42.505Z,60.98
2019-05-02T10:46:41.612Z,60.69
2019-05-02T10:47:42.267Z,59.64
2019-05-02T10:48:42.128Z,57.97
2019-05-02T10:49:42.606Z,58.17
2019-05-02T10:50:42.279Z,58.84
2019-05-02T10:51:49.012Z,61.05
2019-05-02T10:52:42.512Z,60.47
2019-05-02T10:53:42.493Z,63.45
2019-05-02T10:54:42.273Z,62.90
2019-05-02T10:55:42.655Z,59.83
2019-05-02T10:56:42.471Z,59.44
2019-05-02T10:57:42.620Z,60.11
2019-05-02T10:58:42.773Z,59.64
2019-05-02T10:59:42.931Z,61.94
2019-05-02T11:00:45.377Z,59.25
2019-05-02T11:01:43.241Z,58.67
2019-05-02T11:02:43.397Z,59.51
2019-05-02T11:03:47.367Z,62.42
2019-05-02T11:04:43.708Z,61.52
2019-05-02T11:05:43.865Z,62.58
2019-05-02T11:06:46.303Z,62.61
2019-05-02T11:07:44.176Z,57.95
2019-05-02T11:08:46.120Z,55.26
2019-05-02T11:09:44.488Z,54.11
2019-05-02T11:10:44.641Z,53.24
2019-05-02T11:11:44.798Z,54.21
2019-05-02T11:12:47.027Z,53.46
2019-05-02T11:13:45.117Z,53.44
2019-05-02T11:14:45.264Z,52.67
2019-05-02T11:15:45.422Z,51.51
2019-05-02T11:16:45.573Z,51.04
2019-05-02T11:17:45.728Z,52.00
2019-05-02T11:18:45.885Z,51.64
2019-05-02T11:19:46.039Z,51.61
2019-05-02T11:20:46.198Z,54.04
2019-05-02T11:21:55.557Z,54.16
2019-05-02T11:22:46.509Z,52.50
2019-05-02T11:23:46.680Z,52.67
2019-05-02T11:24:46.834Z,54.61
2019-05-02T11:25:46.971Z,56.44
2019-05-02T11:26:47.125Z,57.90
2019-05-02T11:27:47.282Z,56.27
2019-05-02T11:28:47.437Z,56.37
2019-05-02T11:29:47.595Z,54.96
2019-05-02T11:30:47.749Z,54.35
2019-05-02T11:31:47.903Z,55.41
2019-05-02T11:32:48.120Z,54.93
2019-05-02T11:33:48.246Z,58.10
2019-05-02T11:34:48.416Z,57.36
2019-05-02T11:35:49.286Z,56.59
2019-05-02T11:36:48.680Z,55.15
2019-05-02T11:37:48.835Z,52.94
2019-05-02T11:38:55.189Z,52.87
2019-05-02T11:39:52.555Z,51.72
2019-05-02T11:40:49.302Z,54.12
2019-05-02T11:41:49.458Z,54.50
2019-05-02T11:42:49.612Z,54.12
2019-05-02T11:43:49.768Z,54.77
2019-05-02T11:44:49.907Z,53.61
2019-05-02T11:45:54.187Z,53.78
2019-05-02T11:46:51.938Z,54.25
2019-05-02T11:47:50.376Z,54.93
2019-05-02T11:48:56.422Z,55.34
2019-05-02T11:49:52.104Z,56.33
2019-05-02T11:50:52.312Z,55.94
2019-05-02T11:51:52.733Z,55.53
2019-05-02T11:52:52.293Z,57.26
2019-05-02T11:53:52.626Z,56.91
2019-05-02T11:54:52.080Z,54.89
2019-05-02T11:55:53.177Z,54.41
2019-05-02T11:56:53.641Z,54.53
2019-05-02T11:57:52.404Z,53.25
2019-05-02T11:58:52.869Z,51.59
2019-05-02T11:59:52.246Z,51.69
2019-05-02T12:00:52.506Z,52.26
2019-05-02T12:01:59.376Z,53.01
2019-05-02T12:02:54.279Z,52.94
2019-05-02T12:03:52.871Z,57.29
2019-05-02T12:04:55.499Z,54.19
2019-05-02T12:05:53.181Z,53.25
2019-05-02T12:07:00.987Z,55.49
2019-05-02T12:07:53.492Z,55.98
2019-05-02T12:08:53.644Z,53.25
2019-05-02T12:09:57.023Z,52.36
2019-05-02T12:10:53.957Z,52.87
2019-05-02T12:11:56.607Z,52.68
2019-05-02T12:12:54.269Z,51.81
2019-05-02T12:13:56.916Z,50.54
2019-05-02T12:14:54.578Z,50.27
2019-05-02T12:15:54.736Z,50.18
2019-05-02T12:16:54.923Z,50.76
2019-05-02T12:17:55.045Z,50.76
2019-05-02T12:19:08.500Z,51.11
2019-05-02T12:19:55.355Z,51.40
2019-05-02T12:20:55.515Z,52.10
2019-05-02T12:21:55.665Z,55.66
2019-05-02T12:22:55.822Z,54.38
2019-05-02T12:23:56.007Z,54.02
2019-05-02T12:24:56.132Z,54.96
2019-05-02T12:25:56.288Z,54.28
2019-05-02T12:26:56.441Z,55.22
2019-05-02T12:27:56.597Z,55.41
2019-05-02T12:28:56.755Z,55.32
2019-05-02T12:29:59.328Z,55.51
2019-05-02T12:30:57.068Z,55.79
2019-05-02T12:31:57.222Z,55.51
2019-05-02T12:32:57.379Z,54.57
2019-05-02T12:33:57.534Z,57.75
2019-05-02T12:34:57.690Z,56.04
2019-05-02T12:35:57.847Z,54.31
2019-05-02T12:36:58.001Z,54.99
2019-05-02T12:37:58.158Z,55.18
2019-05-02T12:38:58.312Z,54.19
2019-05-02T12:39:58.466Z,54.28
2019-05-02T12:40:58.621Z,54.60
2019-05-02T12:41:59.087Z,54.28
2019-05-02T12:42:58.931Z,54.19
2019-05-02T12:43:59.085Z,53.74
2019-05-02T12:44:59.242Z,52.58
2019-05-02T12:45:59.395Z,51.59
2019-05-02T12:46:59.551Z,52.55
2019-05-02T12:48:02.209Z,51.72
2019-05-02T12:48:59.870Z,51.35
2019-05-02T12:50:00.025Z,49.91
2019-05-02T12:51:01.982Z,49.43
2019-05-02T12:52:01.700Z,50.59
2019-05-02T12:53:00.491Z,51.17
2019-05-02T12:54:02.267Z,52.25
2019-05-02T12:55:02.260Z,49.69
2019-05-02T12:56:02.218Z,48.16